createdAt,value
2023-04-17T00:00:38.929Z,100.00
2023-04-17T00:03:07.512Z,100.00
2023-04-17T00:05:36.118Z,100.00
2023-04-17T00:08:05.007Z,100.00
2023-04-17T00:10:33.358Z,100.00
2023-04-17T00:13:04.091Z,100.00
2023-04-17T00:15:33.086Z,100.00
2023-04-17T00:18:02.551Z,100.00
2023-04-17T00:20:32.907Z,100.00
2023-04-17T00:23:02.110Z,100.00
2023-04-17T00:25:30.893Z,100.00
2023-04-17T00:27:59.584Z,100.00
2023-04-17T00:30:28.099Z,100.00
2023-04-17T00:32:57.741Z,100.00
2023-04-17T00:35:26.561Z,100.00
2023-04-17T00:37:55.146Z,100.00
2023-04-17T00:40:23.629Z,100.00
2023-04-17T00:42:56.416Z,100.00
2023-04-17T00:45:24.681Z,100.00
2023-04-17T00:47:53.186Z,100.00
2023-04-17T00:50:21.978Z,100.00
2023-04-17T00:52:51.318Z,100.00
2023-04-17T00:55:19.896Z,100.00
2023-04-17T00:57:51.289Z,100.00
2023-04-17T01:00:19.725Z,100.00
2023-04-17T01:02:48.739Z,100.00
2023-04-17T01:05:17.749Z,100.00
2023-04-17T01:07:46.234Z,100.00
2023-04-17T01:10:14.935Z,100.00
2023-04-17T01:12:47.020Z,100.00
2023-04-17T01:15:15.794Z,100.00
2023-04-17T01:17:44.299Z,100.00
2023-04-17T01:20:13.805Z,100.00
2023-04-17T01:22:42.964Z,100.00
2023-04-17T01:25:11.542Z,100.00
2023-04-17T01:27:40.945Z,100.00
2023-04-17T01:30:09.994Z,100.00
2023-04-17T01:32:46.698Z,100.00
2023-04-17T01:35:14.987Z,100.00
2023-04-17T01:37:44.094Z,100.00
2023-04-17T01:40:13.133Z,100.00
2023-04-17T01:42:41.511Z,100.00
2023-04-17T01:45:10.758Z,100.00
2023-04-17T01:47:39.762Z,100.00
2023-04-17T01:50:11.605Z,100.00
2023-04-17T01:52:40.247Z,100.00
2023-04-17T01:55:09.546Z,100.00
2023-04-17T01:57:39.346Z,100.00
2023-04-17T02:00:09.415Z,100.00
2023-04-17T02:02:44.268Z,100.00
2023-04-17T02:05:12.943Z,100.00
2023-04-17T02:07:41.471Z,100.00
2023-04-17T02:10:10.620Z,100.00
2023-04-17T02:12:39.042Z,100.00
2023-04-17T02:15:08.212Z,100.00
2023-04-17T02:17:38.361Z,100.00
2023-04-17T02:20:09.236Z,100.00
2023-04-17T02:22:37.833Z,100.00
2023-04-17T02:25:06.681Z,100.00
2023-04-17T02:27:35.410Z,100.00
2023-04-17T02:30:04.346Z,100.00
2023-04-17T02:32:34.376Z,100.00
2023-04-17T02:35:04.009Z,100.00
2023-04-17T02:37:33.645Z,100.00
2023-04-17T02:40:02.501Z,100.00
2023-04-17T02:42:31.628Z,100.00
2023-04-17T02:45:00.665Z,100.00
2023-04-17T02:47:29.055Z,100.00
2023-04-17T02:50:00.418Z,100.00
2023-04-17T02:52:29.878Z,100.00
2023-04-17T02:54:58.504Z,100.00
2023-04-17T02:57:27.741Z,100.00
2023-04-17T02:59:56.421Z,100.00
2023-04-17T03:02:24.988Z,100.00
2023-04-17T03:04:53.422Z,100.00
2023-04-17T03:07:23.838Z,100.00
2023-04-17T03:09:54.316Z,100.00
2023-04-17T03:12:22.892Z,100.00
2023-04-17T03:14:52.910Z,100.00
2023-04-17T03:17:21.256Z,100.00
2023-04-17T03:19:50.112Z,100.00
2023-04-17T03:22:18.725Z,100.00
2023-04-17T03:24:47.852Z,100.00
2023-04-17T03:27:16.582Z,100.00
2023-04-17T03:29:45.574Z,100.00
2023-04-17T03:32:14.643Z,100.00
2023-04-17T03:34:43.884Z,100.00
2023-04-17T03:37:12.758Z,100.00
2023-04-17T03:39:41.682Z,100.00
2023-04-17T03:42:14.881Z,100.00
2023-04-17T03:44:43.501Z,100.00
2023-04-17T03:47:12.885Z,100.00
2023-04-17T03:49:42.242Z,99.73
2023-04-17T03:52:11.883Z,96.84
2023-04-17T03:54:40.652Z,90.72
2023-04-17T03:57:09.029Z,84.24
2023-04-17T03:59:37.686Z,78.22
2023-04-17T04:02:07.340Z,73.97
2023-04-17T04:04:36.759Z,69.73
2023-04-17T04:07:11.853Z,67.16
2023-04-17T04:09:40.633Z,65.23
2023-04-17T04:12:09.516Z,63.71
2023-04-17T04:14:42.184Z,59.92
2023-04-17T04:17:11.692Z,57.44
2023-04-17T04:19:40.476Z,55.41
2023-04-17T04:22:09.574Z,54.08
2023-04-17T04:24:43.035Z,52.45
2023-04-17T04:27:13.297Z,50.27
2023-04-17T04:29:48.792Z,49.77
2023-04-17T04:32:19.294Z,48.58
2023-04-17T04:34:48.750Z,48.95
2023-04-17T04:37:22.117Z,48.08
2023-04-17T04:39:54.397Z,46.82
2023-04-17T04:42:23.878Z,46.49
2023-04-17T04:45:22.184Z,45.80
2023-04-17T04:47:50.868Z,44.21
2023-04-17T04:50:20.151Z,43.23
2023-04-17T04:52:49.128Z,42.91
2023-04-17T04:55:27.428Z,42.49
2023-04-17T04:57:57.796Z,42.26
2023-04-17T05:00:26.807Z,41.66
2023-04-17T05:02:58.877Z,41.39
2023-04-17T05:05:28.204Z,41.59
2023-04-17T05:07:56.717Z,40.69
2023-04-17T05:10:27.426Z,40.36
2023-04-17T05:13:00.020Z,40.30
2023-04-17T05:15:28.895Z,39.50
2023-04-17T05:17:58.058Z,38.97
2023-04-17T05:20:27.080Z,38.85
2023-04-17T05:22:58.892Z,39.02
2023-04-17T05:25:27.319Z,38.81
2023-04-17T05:27:56.652Z,38.40
2023-04-17T05:30:25.530Z,38.54
2023-04-17T05:33:25.432Z,38.57
2023-04-17T05:35:57.289Z,37.94
2023-04-17T05:38:25.766Z,38.04
2023-04-17T05:40:54.720Z,37.76
2023-04-17T05:43:23.076Z,35.36
2023-04-17T05:45:53.830Z,34.89
2023-04-17T05:48:22.326Z,34.29
2023-04-17T05:50:51.137Z,34.34
2023-04-17T05:53:19.740Z,34.74
2023-04-17T05:55:51.902Z,34.46
2023-04-17T05:58:24.147Z,33.59
2023-04-17T06:00:55.831Z,33.52
2023-04-17T06:03:25.134Z,33.46
2023-04-17T06:05:59.408Z,32.93
2023-04-17T06:08:28.196Z,33.12
2023-04-17T06:10:56.605Z,32.26
2023-04-17T06:13:26.417Z,32.14
2023-04-17T06:15:55.006Z,32.37
2023-04-17T06:18:23.798Z,31.22
2023-04-17T06:20:52.371Z,31.51
2023-04-17T06:23:21.831Z,31.64
2023-04-17T06:25:50.976Z,31.05
2023-04-17T06:28:20.279Z,29.78
2023-04-17T06:30:49.046Z,30.19
2023-04-17T06:33:17.675Z,30.13
2023-04-17T06:35:46.365Z,30.57
2023-04-17T06:38:28.880Z,30.39
2023-04-17T06:40:58.115Z,29.59
2023-04-17T06:43:27.340Z,29.93
2023-04-17T06:45:55.741Z,29.07
2023-04-17T06:48:24.221Z,28.07
2023-04-17T06:50:52.444Z,26.94
2023-04-17T06:53:21.832Z,27.15
2023-04-17T06:55:50.159Z,26.44
2023-04-17T06:58:18.751Z,25.92
2023-04-17T07:00:47.237Z,26.37
2023-04-17T07:03:16.871Z,26.27
2023-04-17T07:05:45.511Z,26.15
2023-04-17T07:08:16.116Z,26.42
2023-04-17T07:10:44.936Z,25.94
2023-04-17T07:13:13.417Z,26.34
2023-04-17T07:15:41.980Z,25.63
2023-04-17T07:18:11.383Z,25.95
2023-04-17T07:20:39.723Z,26.08
2023-04-17T07:23:08.571Z,26.33
2023-04-17T07:25:37.248Z,26.66
2023-04-17T07:28:05.951Z,26.93
2023-04-17T07:30:34.654Z,26.70
2023-04-17T07:33:03.532Z,27.25
2023-04-17T07:35:32.295Z,27.37
2023-04-17T07:38:03.765Z,26.74
2023-04-17T07:40:32.366Z,26.99
2023-04-17T07:43:00.816Z,26.70
2023-04-17T07:45:29.503Z,26.77
2023-04-17T07:47:58.150Z,27.39
2023-04-17T07:50:26.838Z,28.10
2023-04-17T07:52:55.873Z,27.74
2023-04-17T07:55:24.252Z,27.50
2023-04-17T07:57:53.248Z,27.87
2023-04-17T08:00:21.936Z,27.67
2023-04-17T08:02:50.761Z,26.46
2023-04-17T08:05:19.736Z,25.64
2023-04-17T08:07:48.390Z,25.31
2023-04-17T08:10:16.742Z,25.54
2023-04-17T08:12:46.136Z,25.78
2023-04-17T08:15:14.802Z,25.99
2023-04-17T08:17:43.617Z,25.50
2023-04-17T08:20:12.274Z,25.30
2023-04-17T08:22:41.571Z,25.39
2023-04-17T08:25:10.958Z,25.72
2023-04-17T08:27:40.847Z,25.84
2023-04-17T08:30:13.046Z,25.98
2023-04-17T08:32:47.001Z,25.41
2023-04-17T08:35:15.648Z,25.42
2023-04-17T08:37:47.067Z,25.70
2023-04-17T08:40:17.358Z,25.11
2023-04-17T08:42:48.198Z,25.61
2023-04-17T08:45:17.653Z,26.02
2023-04-17T08:47:46.386Z,25.86
2023-04-17T08:50:17.067Z,25.59
2023-04-17T08:52:49.723Z,25.59
2023-04-17T08:55:22.630Z,26.47
2023-04-17T08:58:04.411Z,25.94
2023-04-17T09:00:34.127Z,25.30
2023-04-17T09:03:05.300Z,25.66
2023-04-17T09:05:34.629Z,25.81
2023-04-17T09:08:24.302Z,26.16
2023-04-17T09:10:53.936Z,26.06
2023-04-17T09:13:25.137Z,25.63
2023-04-17T09:16:07.446Z,25.57
2023-04-17T09:18:37.315Z,26.02
2023-04-17T09:21:06.621Z,26.01
2023-04-17T09:23:59.800Z,26.47
2023-04-17T09:26:31.140Z,27.39
2023-04-17T09:29:12.262Z,27.53
2023-04-17T09:31:41.689Z,27.00
2023-04-17T09:34:15.547Z,26.31
2023-04-17T09:36:44.243Z,26.45
2023-04-17T09:39:20.933Z,27.64
2023-04-17T09:41:49.668Z,27.35
2023-04-17T09:44:28.999Z,27.26
2023-04-17T09:46:57.506Z,26.92
2023-04-17T09:49:29.131Z,27.21
2023-04-17T09:51:57.981Z,25.89
2023-04-17T09:54:26.908Z,25.23
2023-04-17T09:56:56.347Z,25.50
2023-04-17T09:59:25.266Z,25.40
2023-04-17T10:01:56.589Z,25.70
2023-04-17T10:04:25.321Z,26.28
2023-04-17T10:06:54.124Z,26.10
2023-04-17T10:09:22.937Z,26.64
2023-04-17T10:11:51.398Z,26.68
2023-04-17T10:14:33.131Z,25.83
2023-04-17T10:17:01.893Z,25.99
2023-04-17T10:19:31.810Z,25.62
2023-04-17T10:22:15.868Z,25.48
2023-04-17T10:25:13.152Z,24.98
2023-04-17T10:27:41.996Z,25.17
2023-04-17T10:30:12.999Z,25.22
2023-04-17T10:32:46.709Z,24.27
2023-04-17T10:35:17.992Z,24.36
2023-04-17T10:37:52.518Z,24.21
2023-04-17T10:40:25.991Z,24.34
2023-04-17T10:43:22.649Z,25.30
2023-04-17T10:46:13.276Z,24.83
2023-04-17T10:48:49.907Z,24.50
2023-04-17T10:51:24.330Z,25.19
2023-04-17T10:53:56.104Z,25.56
2023-04-17T10:56:26.576Z,25.38
2023-04-17T10:59:11.400Z,25.00
2023-04-17T11:01:58.074Z,25.05
2023-04-17T11:04:31.029Z,24.64
2023-04-17T11:07:00.463Z,24.98
2023-04-17T11:09:29.767Z,24.58
2023-04-17T11:11:59.803Z,24.21
2023-04-17T11:14:28.167Z,24.83
2023-04-17T11:16:56.823Z,25.68
2023-04-17T11:19:25.965Z,24.76
2023-04-17T11:21:57.440Z,24.14
2023-04-17T11:24:34.684Z,24.48
2023-04-17T11:27:04.020Z,25.76
2023-04-17T11:29:33.317Z,25.59
2023-04-17T11:32:01.773Z,25.41
2023-04-17T11:34:30.523Z,24.84
2023-04-17T11:37:00.051Z,24.70
2023-04-17T11:39:30.340Z,24.80
2023-04-17T11:41:58.875Z,24.55
2023-04-17T11:44:28.305Z,25.26
2023-04-17T11:46:59.284Z,25.28
2023-04-17T11:49:29.021Z,23.50
2023-04-17T11:52:00.295Z,23.45
2023-04-17T11:54:29.758Z,24.05
2023-04-17T11:57:11.905Z,23.91
2023-04-17T11:59:42.273Z,24.21
2023-04-17T12:02:11.560Z,23.93
2023-04-17T12:04:40.759Z,24.36
2023-04-17T12:07:09.492Z,24.37
2023-04-17T12:09:37.866Z,23.90
2023-04-17T12:12:06.978Z,24.20
2023-04-17T12:14:36.269Z,23.94
2023-04-17T12:17:04.740Z,24.23
2023-04-17T12:19:34.066Z,24.75
2023-04-17T12:22:02.697Z,24.69
2023-04-17T12:24:31.185Z,24.29
2023-04-17T12:27:02.078Z,24.62
2023-04-17T12:29:43.072Z,24.61
2023-04-17T12:32:13.979Z,24.14
2023-04-17T12:34:42.631Z,23.91
2023-04-17T12:37:11.907Z,23.36
2023-04-17T12:39:40.333Z,23.99
2023-04-17T12:42:08.831Z,23.70
2023-04-17T12:44:37.402Z,23.77
2023-04-17T12:47:05.999Z,23.83
2023-04-17T12:49:35.507Z,23.50
2023-04-17T12:52:04.133Z,23.64
2023-04-17T12:54:33.484Z,24.13
2023-04-17T12:57:02.631Z,24.02
2023-04-17T12:59:31.454Z,24.79
2023-04-17T13:01:59.855Z,24.66
2023-04-17T13:04:28.565Z,24.11
2023-04-17T13:06:57.479Z,24.01
2023-04-17T13:09:26.556Z,24.10
2023-04-17T13:11:54.979Z,23.60
2023-04-17T13:14:23.517Z,24.27
2023-04-17T13:16:52.389Z,24.83
2023-04-17T13:19:20.830Z,24.65
2023-04-17T13:21:51.314Z,24.53
2023-04-17T13:24:19.770Z,24.77
2023-04-17T13:26:48.425Z,23.92
2023-04-17T13:29:19.289Z,23.54
2023-04-17T13:31:48.376Z,23.66
2023-04-17T13:34:16.807Z,24.23
2023-04-17T13:36:46.555Z,24.35
2023-04-17T13:39:15.344Z,24.03
2023-04-17T13:41:43.925Z,23.81
2023-04-17T13:44:14.091Z,24.11
2023-04-17T13:46:44.405Z,23.90
2023-04-17T13:49:13.299Z,23.92
2023-04-17T13:51:41.971Z,23.78
2023-04-17T13:54:10.706Z,24.23
2023-04-17T13:56:39.414Z,24.24
2023-04-17T13:59:08.100Z,24.36
2023-04-17T14:01:36.705Z,24.69
2023-04-17T14:04:05.592Z,24.60
2023-04-17T14:06:35.122Z,24.57
2023-04-17T14:09:03.804Z,24.54
2023-04-17T14:11:32.258Z,24.82
2023-04-17T14:14:01.138Z,24.73
2023-04-17T14:16:29.716Z,24.78
2023-04-17T14:19:06.433Z,25.22
2023-04-17T14:21:42.475Z,24.98
2023-04-17T14:24:11.151Z,25.15
2023-04-17T14:26:39.620Z,25.50
2023-04-17T14:29:09.343Z,25.69
2023-04-17T14:31:37.926Z,25.43
2023-04-17T14:34:06.640Z,25.46
2023-04-17T14:36:35.999Z,25.43
2023-04-17T14:39:04.415Z,24.92
2023-04-17T14:41:34.438Z,25.34
2023-04-17T14:44:02.979Z,26.01
2023-04-17T14:46:32.173Z,26.26
2023-04-17T14:49:00.659Z,26.38
2023-04-17T14:51:30.610Z,26.79
2023-04-17T14:53:59.284Z,26.03
2023-04-17T14:56:30.005Z,25.53
2023-04-17T14:58:58.490Z,25.55
2023-04-17T15:01:26.965Z,26.04
2023-04-17T15:03:55.844Z,26.26
2023-04-17T15:06:24.637Z,26.58
2023-04-17T15:08:53.143Z,26.97
2023-04-17T15:11:21.557Z,27.51
2023-04-17T15:13:50.384Z,27.57
2023-04-17T15:16:18.786Z,27.51
2023-04-17T15:18:47.249Z,27.71
2023-04-17T15:21:16.619Z,28.11
2023-04-17T15:23:44.927Z,28.15
2023-04-17T15:26:13.457Z,28.13
2023-04-17T15:28:42.091Z,28.17
2023-04-17T15:31:10.519Z,28.31
2023-04-17T15:33:38.877Z,28.48
2023-04-17T15:36:07.400Z,28.80
2023-04-17T15:38:36.384Z,29.02
2023-04-17T15:41:04.736Z,29.17
2023-04-17T15:43:33.595Z,29.55
2023-04-17T15:46:03.808Z,29.84
2023-04-17T15:48:32.579Z,30.25
2023-04-17T15:51:03.044Z,30.42
2023-04-17T15:53:32.058Z,30.44
2023-04-17T15:56:00.782Z,30.51
2023-04-17T15:58:29.337Z,30.52
2023-04-17T16:00:57.800Z,30.48
2023-04-17T16:03:26.326Z,30.79
2023-04-17T16:05:55.154Z,31.02
2023-04-17T16:08:23.831Z,31.34
2023-04-17T16:10:52.313Z,31.54
2023-04-17T16:13:20.699Z,31.77
2023-04-17T16:15:50.160Z,31.96
2023-04-17T16:18:18.676Z,32.08
2023-04-17T16:20:47.302Z,32.37
2023-04-17T16:23:15.772Z,32.47
2023-04-17T16:25:44.323Z,32.77
2023-04-17T16:28:12.710Z,32.96
2023-04-17T16:30:41.082Z,33.08
2023-04-17T16:33:09.764Z,33.35
2023-04-17T16:35:38.247Z,33.47
2023-04-17T16:38:06.946Z,33.77
2023-04-17T16:40:35.618Z,33.87
2023-04-17T16:43:04.098Z,34.01
2023-04-17T16:45:32.828Z,34.05
2023-04-17T16:48:01.524Z,34.12
2023-04-17T16:50:30.464Z,34.33
2023-04-17T16:52:58.959Z,34.52
2023-04-17T16:55:27.442Z,34.79
2023-04-17T16:57:55.885Z,35.12
2023-04-17T17:00:24.593Z,35.26
2023-04-17T17:02:53.165Z,35.51
2023-04-17T17:05:22.155Z,35.76
2023-04-17T17:07:50.424Z,35.75
2023-04-17T17:10:19.439Z,35.94
2023-04-17T17:12:47.865Z,36.15
2023-04-17T17:15:16.371Z,36.25
2023-04-17T17:17:44.937Z,36.36
2023-04-17T17:20:13.782Z,36.67
2023-04-17T17:22:42.056Z,36.84
2023-04-17T17:25:10.641Z,37.05
2023-04-17T17:27:39.384Z,37.28
2023-04-17T17:30:08.457Z,37.56
2023-04-17T17:32:37.773Z,37.66
2023-04-17T17:35:06.945Z,37.86
2023-04-17T17:37:35.476Z,37.73
2023-04-17T17:40:04.599Z,37.78
2023-04-17T17:42:33.583Z,37.92
2023-04-17T17:45:02.071Z,37.90
2023-04-17T17:47:30.734Z,37.86
2023-04-17T17:49:59.341Z,37.91
2023-04-17T17:52:27.838Z,37.78
2023-04-17T17:54:56.714Z,37.89
2023-04-17T17:57:27.706Z,38.00
2023-04-17T18:00:01.714Z,38.04
2023-04-17T18:02:33.882Z,38.48
2023-04-17T18:05:02.565Z,38.66
2023-04-17T18:07:31.556Z,38.88
2023-04-17T18:09:59.913Z,38.98
2023-04-17T18:12:28.481Z,39.23
2023-04-17T18:14:57.045Z,39.54
2023-04-17T18:17:25.983Z,39.72
2023-04-17T18:19:54.427Z,40.01
2023-04-17T18:22:22.833Z,40.47
2023-04-17T18:24:54.693Z,41.05
2023-04-17T18:27:23.088Z,41.54
2023-04-17T18:29:51.698Z,42.05
2023-04-17T18:32:22.181Z,42.50
2023-04-17T18:34:51.406Z,43.16
2023-04-17T18:37:20.061Z,43.62
2023-04-17T18:39:48.528Z,44.23
2023-04-17T18:42:17.007Z,44.86
2023-04-17T18:44:45.483Z,45.59
2023-04-17T18:47:13.967Z,46.28
2023-04-17T18:49:42.383Z,46.79
2023-04-17T18:52:11.157Z,47.06
2023-04-17T18:54:39.537Z,47.66
2023-04-17T18:57:08.218Z,48.02
2023-04-17T18:59:36.710Z,48.39
2023-04-17T19:02:05.571Z,48.81
2023-04-17T19:04:34.096Z,49.51
2023-04-17T19:07:03.087Z,49.35
2023-04-17T19:09:31.527Z,50.42
2023-04-17T19:12:00.017Z,50.37
2023-04-17T19:14:28.620Z,50.88
2023-04-17T19:16:57.324Z,50.86
2023-04-17T19:19:26.241Z,50.98
2023-04-17T19:21:54.816Z,51.61
2023-04-17T19:24:23.446Z,52.19
2023-04-17T19:26:51.859Z,53.05
2023-04-17T19:29:20.743Z,54.45
2023-04-17T19:31:49.224Z,54.68
2023-04-17T19:34:17.869Z,55.71
2023-04-17T19:36:46.965Z,56.30
2023-04-17T19:39:15.820Z,56.46
2023-04-17T19:41:50.930Z,57.03
2023-04-17T19:44:19.370Z,57.90
2023-04-17T19:46:47.982Z,59.11
2023-04-17T19:49:16.451Z,60.08
2023-04-17T19:51:44.910Z,60.99
2023-04-17T19:54:13.468Z,61.75
2023-04-17T19:56:41.971Z,62.72
2023-04-17T19:59:14.361Z,63.60
2023-04-17T20:01:44.705Z,64.58
2023-04-17T20:04:13.531Z,64.67
2023-04-17T20:06:42.462Z,64.73
2023-04-17T20:09:13.259Z,65.06
2023-04-17T20:11:43.107Z,65.73
2023-04-17T20:14:14.932Z,66.69
2023-04-17T20:16:45.458Z,67.53
2023-04-17T20:19:14.470Z,68.48
2023-04-17T20:21:44.321Z,69.17
2023-04-17T20:24:13.310Z,70.11
2023-04-17T20:26:44.340Z,71.20
2023-04-17T20:29:12.905Z,72.42
2023-04-17T20:31:42.109Z,73.06
2023-04-17T20:34:10.547Z,73.66
2023-04-17T20:36:38.896Z,75.07
2023-04-17T20:39:10.925Z,76.06
2023-04-17T20:41:40.712Z,78.32
2023-04-17T20:44:09.404Z,79.89
2023-04-17T20:46:38.470Z,80.71
2023-04-17T20:49:07.049Z,81.40
2023-04-17T20:51:36.127Z,81.89
2023-04-17T20:54:04.636Z,81.95
2023-04-17T20:56:32.967Z,82.82
2023-04-17T20:59:01.455Z,83.33
2023-04-17T21:01:52.934Z,84.43
2023-04-17T21:04:22.110Z,84.93
2023-04-17T21:06:50.892Z,86.44
2023-04-17T21:09:19.575Z,87.08
2023-04-17T21:11:49.738Z,87.35
2023-04-17T21:14:18.068Z,87.90
2023-04-17T21:16:46.854Z,88.55
2023-04-17T21:19:15.542Z,88.92
2023-04-17T21:21:43.822Z,89.36
2023-04-17T21:24:12.582Z,89.02
2023-04-17T21:26:41.554Z,89.49
2023-04-17T21:29:11.124Z,89.96
2023-04-17T21:31:39.878Z,89.69
2023-04-17T21:34:08.512Z,89.60
2023-04-17T21:36:37.157Z,89.07
2023-04-17T21:39:07.159Z,89.36
2023-04-17T21:41:35.863Z,89.94
2023-04-17T21:44:05.777Z,90.18
2023-04-17T21:46:34.360Z,90.68
2023-04-17T21:49:03.332Z,91.44
2023-04-17T21:51:32.052Z,92.72
2023-04-17T21:54:00.623Z,93.46
2023-04-17T21:56:29.574Z,94.16
2023-04-17T21:58:58.055Z,94.67
2023-04-17T22:01:26.734Z,95.46
2023-04-17T22:03:55.389Z,95.73
2023-04-17T22:06:24.255Z,96.17
2023-04-17T22:08:52.845Z,96.46
2023-04-17T22:11:21.331Z,97.07
2023-04-17T22:13:50.317Z,97.71
2023-04-17T22:16:19.130Z,98.99
2023-04-17T22:18:47.691Z,99.73
2023-04-17T22:21:16.128Z,100.00
2023-04-17T22:23:45.169Z,100.00
2023-04-17T22:26:13.789Z,100.00
2023-04-17T22:28:42.171Z,100.00
2023-04-17T22:31:11.165Z,100.00
2023-04-17T22:33:39.610Z,100.00
2023-04-17T22:36:08.733Z,100.00
2023-04-17T22:38:37.388Z,100.00
2023-04-17T22:41:05.883Z,100.00
2023-04-17T22:43:34.343Z,100.00
2023-04-17T22:46:02.864Z,100.00
2023-04-17T22:48:32.841Z,100.00
2023-04-17T22:51:01.595Z,100.00
2023-04-17T22:53:31.670Z,100.00
2023-04-17T22:56:01.198Z,100.00
2023-04-17T22:58:33.726Z,100.00
2023-04-17T23:01:03.384Z,100.00
2023-04-17T23:03:32.684Z,100.00
2023-04-17T23:06:01.238Z,100.00
2023-04-17T23:08:30.550Z,100.00
2023-04-17T23:11:00.079Z,100.00
2023-04-17T23:13:28.710Z,100.00
2023-04-17T23:15:57.750Z,100.00
2023-04-17T23:18:26.298Z,100.00
2023-04-17T23:20:54.775Z,100.00
2023-04-17T23:23:23.523Z,100.00
2023-04-17T23:25:52.653Z,100.00
2023-04-17T23:28:21.344Z,100.00
2023-04-17T23:30:49.825Z,100.00
2023-04-17T23:33:18.330Z,100.00
2023-04-17T23:35:46.917Z,100.00
2023-04-17T23:38:15.492Z,100.00
2023-04-17T23:40:44.068Z,100.00
2023-04-17T23:43:12.752Z,100.00
2023-04-17T23:45:41.323Z,100.00
2023-04-17T23:48:09.810Z,100.00
2023-04-17T23:50:38.355Z,100.00
2023-04-17T23:53:07.501Z,100.00
2023-04-17T23:55:35.867Z,100.00
2023-04-17T23:58:04.347Z,100.00
